Timeline UpdatesTrip UpdatesNews PostsPvt PostsTravel TipsAdmin PostsConv PostsFollowed PostsChat RequestsBlog PostsPNR Posts

Disclaimer
Search
 
 
Fri Apr 25, 2014 09:44:47 ISTHomeTrainsΣChainsAtlasPNRForumGalleryNewsFAQTripsMembersLoginFeedback
No Recent News for this Train
Other Trains in the News **new
Latest...
Experimental Stop provided at Pudukkad.
Fri Feb 21, 2014 (07:40PM)
⇐ Return Journey: Train# 16650

16649/Parashuram Express

Feb 21 2014 (7:39PM)
Change Departure Station:
Change Arrival Station:
Post a Train Travel TipPost a Train Travel Tip **new
Post a Comment/Question/Picture/VideoPost a Comment/Question/Picture/Video
Pantry/Catering
✓ Pantry Car Avbl
✓ Catering Avbl
RSA - Rake Sharing
Rake/Coach Composition
SLR-GS-GS-GS-GS-GS-GS-GS-PC-GS-D1-F1-C2-C1-GS-GS-SLRD
Loco
MAQ-SRR :ERS WDM 3A/ED WDM 3A/D SRR-NCJ: ED/RPM WAP 4
News    PNR    Forum    Time-Table    Availability    Fare Chart    Map    Arr/Dep History    Trips    Gallery    ΣChains    X/O    Timeline    
Travel Time: 13h 35m    45 halts    Distance: 632 km    Avg Speed: 46 km/hr
Type: Mail/Express
Zone: SR/Southern
Departs @ 04:50 (Avg 1m late)
Platform# 1
SMTWTFS
Mangalore Central/MAQ 
Arrives @ 18:25 (Avg 33m late)
Platform# 5
SMTWTFS
Trivandrum Central/TVC 

45 halts. 120 intermediate Stations between Mangalore Central and Trivandrum Central

Show ALL intermediate Stations  Show Old Time-Table

#CodeStation NameX/OArrivesAvgDepartsAvgHaltPFDay#KmSpeedElevZoneAddress
1MAQ»Mangalore Central (3)»  -04:50+1110.06114mSRMangalore 575001, Karnataka
2KGQKasaragod (3)  05:35+205:36+31m--145.76918mSRTel: 04994 220800, Kerala
3KZEKanhangad (3)  05:56+605:57+71m--168.85615mSRKanhangad, Kerala
4NLENileshwar (2)X  06:07+806:08+81m--178.16012mSRNileswaram, Kerala
5PAYPayyanur (3)  06:28+706:29+81m--198.1640mSRKannur District, Kerala
6PAZPayangadi (2)  06:40+706:41+81m--1109.86412mSRKannur District, Kerala
7KPQKannapuram (2)X  06:48+806:49+81m--1117.3339mSRKannur District, Kerala
8CANKannur Main (3)  07:15-307:20+25m31131.86514mSRKannur Tel: 0497 2705555, Kerala
9TLYThalassery (2)X  07:39+207:40+31m--1152.4629mSRKannur, Kerala
10MAHEMahe (2)  07:49+407:50+41m--1161.76416mSRMahe, Puducherry
11BDJVadakara (2)X  08:02+608:03+71m11174.68211mSRCalicut / Station Ph No : 0496-2524254, Kerala
12QLDKoyilandy (3)  08:19+1008:20+111m--1196.53611mSRQuilandi, Kerala
13CLTKozhikode Main (4)X  09:00-309:05+25m31220.84311mSRCalicut Tel: 0495 2701234, Kerala
14FKFerok (2)X  09:19+309:20+41m--1230.85119mSRFeroke, Kerala
15VLIVallikunnu (2)  09:32+609:33+61m--1241.04313mSRVallikkunnu, Kerala
16PGIParappangadi (2)  09:40+609:41+71m--1246.06119mSRParappanangadi, Kerala
17TATanur (3)X  09:49+809:50+81m--1254.15311mSRMalappuram, Kerala
18TIRTirur (3)  09:59+810:00+91m21262.1489mSRTel: 0494 2422240, Kerala
19KTUKuttippuram (2)  10:19+610:20+71m21277.17917mSRKuttippuram, Kerala
20PTBPattambi (2)X  10:34+1110:35+111m21295.62021mSRPattambi, Kerala
21SRRShoranur Junction (7)XO11:10-511:15+75m61307.15226mSRShoranur ph.no 0466-2222913, Kerala
22WKIWadakkanchery (2)  11:34+1611:35+171m11323.75840mSRWadackanchery, Kerala
23TCRThrissur (4)  11:52+2011:54+202m11340.1586mSRThrissur Tel: 0487 2423150, Kerala
24PUKPudukkad (2)X  12:08+2112:09+211m--1353.66111mSRPudukad, Kerala
25IJKIrinjalakkuda (2)  12:19+2112:20+211m21363.84818mSRKalletumkara, Kerala
26CKIChalakkudy (3)  12:28+2112:29+211m11370.3339mSRPh: 0480- 2701368, Kerala
27DINRDivine Nagar (2)X  12:33+2612:34+261m11372.57816mSRThrissur, Kerala
28AFKAngamaly for Kalady (3)  12:44+2612:45+271m21385.53716mSRPhone: 0484-2452340, Kerala
29AWYAluva (3)X  13:00+2313:02+232m11394.73112mSRPh: 0484-2624141, Kerala
30ERNErnakulam Town (North) (2)  13:35+1013:40+115m21411.5399mSRTel: 0484 2395198, Kerala
31TRTRThrippunithura (2)13:55+1813:56+181m--1421.2645mSRErnakulam, Kerala
32PVRDPiravom Road  14:14+2214:15+241m11440.36512mSRKottayam, Kerala
33ETMEttumanur (1)  14:34+3014:35+311m11460.94228mSRKottayam, Kerala
34KTYMKottayam (3)  14:50+3214:53+333m11471.56715mSRTel: 0481 2563535, Kerala
35CGYChanganassery (3)X  15:09+3915:10+401m21489.35211mSRPh: 0481- 2420108, Kerala
36TRVLTiruvalla (2)X  15:19+4215:20+461m11497.23927mSRPh: 0469-2601314, Kerala
37CNGRChengannur (3)  15:34+4615:35+471m11506.3546mSRPh: 0479-2452340, Kerala
38MVLKMavelikara (3)X  15:49+4515:50+461m31518.84613mSRMavelikkara Ph: 0479-2302249, Kerala
39KYJKayamkulam Junction (5)X  16:00+4516:02+482m41526.56311mSRAlappuzha Ph;0479-2442042, Kerala
40KPYKarunagappalli (2)  16:15+5316:16+531m21540.25712mSRKollam Dist, Kerala
41STKTSasthamkotta (2)  16:24+5516:25+561m11547.8290mSRKollam Dist, Kerala
42QLNKollam Junction (6)X  17:05+3417:10+335m11567.37416mSRKollam 0474-2746194, Kerala
43PVUParavur (3)17:20+3717:21+381m--1579.78418mSRParavoor, Kerala
44VAKVarkala Sivagiri (3)X  17:29+3917:30+401m21590.97252mSREdava Kappil Road, Kerala
45KZKKazhakkuttam (3)X17:53+4317:54+431m--1618.66620mSRKulathoor ► Kazhakootam Road Kazhakootam PO Thiruvananthapuram, Kerala
46TVPThiruvananthapuram Pettah (2)  18:04+3418:05+341m11629.5718mSRTrivandrum Ph: 04712470181, Kerala
47TVC•Trivandrum Central (5)•X  18:25+3318:35+3410m51631.95412mSRPh: 0471-2321622, Kerala
48NYYNeyyattinkara  18:54+4018:55+431m--1649.17311mSRThiruvananthapuram, Kerala
49PASAParassalaX  19:04+4819:05+491m--1660.03145mSRParassala, Kerala
50KZTKulitturai  19:24+4019:25+411m--1669.94729mSRMarthandam, Tamil Nadu
51ERLEraniel  19:44+3619:45+381m--1684.72219mSRKanyakumari, Tamil Nadu
52NCJNagercoil Junction (3)  20:35+9---1703.0-22mSRNagercoil-629002, Tamil Nadu
Scroll to Top
Scroll to Bottom